createdAt,value
2018-09-17T00:00:34.175Z,95918.00
2018-09-17T00:03:03.645Z,95917.00
2018-09-17T00:05:34.643Z,95916.00
2018-09-17T00:08:04.016Z,95919.00
2018-09-17T00:10:33.536Z,95921.00
2018-09-17T00:13:04.142Z,95927.00
2018-09-17T00:15:34.184Z,95920.00
2018-09-17T00:18:05.402Z,95909.00
2018-09-17T00:20:35.066Z,95917.00
2018-09-17T00:23:04.584Z,95915.00
2018-09-17T00:25:34.767Z,95922.00
2018-09-17T00:28:04.504Z,95916.00
2018-09-17T00:30:34.087Z,95911.00
2018-09-17T00:33:03.784Z,95912.00
2018-09-17T00:35:33.608Z,95910.00
2018-09-17T00:38:04.110Z,95909.00
2018-09-17T00:40:39.972Z,95900.00
2018-09-17T00:43:14.332Z,95910.00
2018-09-17T00:45:43.904Z,95908.00
2018-09-17T00:48:13.612Z,95910.00
2018-09-17T00:50:47.500Z,95913.00
2018-09-17T00:53:23.942Z,95912.00
2018-09-17T00:55:53.368Z,95909.00
2018-09-17T00:58:23.031Z,95908.00
2018-09-17T01:00:52.700Z,95901.00
2018-09-17T01:03:23.084Z,95906.00
2018-09-17T01:05:53.241Z,95898.00
2018-09-17T01:08:23.395Z,95898.00
2018-09-17T01:10:52.907Z,95901.00
2018-09-17T01:13:23.151Z,95897.00
2018-09-17T01:15:52.734Z,95892.00
2018-09-17T01:18:22.281Z,95905.00
2018-09-17T01:20:54.463Z,95901.00
2018-09-17T01:23:25.543Z,95905.00
2018-09-17T01:25:55.145Z,95903.00
2018-09-17T01:28:24.621Z,95908.00
2018-09-17T01:30:54.301Z,95914.00
2018-09-17T01:33:24.987Z,95905.00
2018-09-17T01:35:54.538Z,95905.00
2018-09-17T01:38:26.005Z,95911.00
2018-09-17T01:40:55.569Z,95913.00
2018-09-17T01:43:30.073Z,95911.00
2018-09-17T01:45:59.957Z,95899.00
2018-09-17T01:48:29.576Z,95905.00
2018-09-17T01:50:59.285Z,95907.00
2018-09-17T01:53:28.956Z,95899.00
2018-09-17T01:55:58.720Z,95888.00
2018-09-17T01:58:28.353Z,95888.00
2018-09-17T02:00:58.096Z,95881.00
2018-09-17T02:03:27.705Z,95890.00
2018-09-17T02:05:57.281Z,95889.00
2018-09-17T02:08:27.807Z,95886.00
2018-09-17T02:11:02.675Z,95892.00
2018-09-17T02:13:39.104Z,95894.00
2018-09-17T02:16:08.776Z,95892.00
2018-09-17T02:18:39.489Z,95892.00
2018-09-17T02:21:11.777Z,95893.00
2018-09-17T02:23:41.779Z,95896.00
2018-09-17T02:26:14.837Z,95896.00
2018-09-17T02:28:49.900Z,95887.00
2018-09-17T02:31:19.730Z,95886.00
2018-09-17T02:33:49.513Z,95887.00
2018-09-17T02:36:19.178Z,95893.00
2018-09-17T02:38:49.405Z,95902.00
2018-09-17T02:41:19.581Z,95907.00
2018-09-17T02:43:49.388Z,95901.00
2018-09-17T02:46:19.231Z,95903.00
2018-09-17T02:48:49.055Z,95901.00
2018-09-17T02:51:27.324Z,95888.00
2018-09-17T02:53:57.153Z,95900.00
2018-09-17T02:56:27.862Z,95894.00
2018-09-17T02:58:57.643Z,95904.00
2018-09-17T03:01:33.043Z,95909.00
2018-09-17T03:04:02.653Z,95901.00
2018-09-17T03:06:32.343Z,95905.00
2018-09-17T03:09:01.900Z,95918.00
2018-09-17T03:11:31.481Z,95912.00
2018-09-17T03:14:01.756Z,95905.00
2018-09-17T03:16:31.512Z,95919.00
2018-09-17T03:19:01.084Z,95913.00
2018-09-17T03:21:30.800Z,95913.00
2018-09-17T03:24:00.381Z,95908.00
2018-09-17T03:26:30.370Z,95908.00
2018-09-17T03:29:01.994Z,95908.00
2018-09-17T03:31:31.735Z,95916.00
2018-09-17T03:34:01.473Z,95917.00
2018-09-17T03:36:31.361Z,95917.00
2018-09-17T03:39:01.165Z,95926.00
2018-09-17T03:41:30.624Z,95931.00
2018-09-17T03:44:00.585Z,95926.00
2018-09-17T03:46:30.906Z,95927.00
2018-09-17T03:49:00.672Z,95932.00
2018-09-17T03:51:30.342Z,95930.00
2018-09-17T03:54:00.235Z,95947.00
2018-09-17T03:56:36.781Z,95937.00
2018-09-17T03:59:06.474Z,95932.00
2018-09-17T04:01:36.190Z,95943.00
2018-09-17T04:04:05.666Z,95936.00
2018-09-17T04:06:35.311Z,95942.00
2018-09-17T04:09:07.483Z,95934.00
2018-09-17T04:11:37.870Z,95938.00
2018-09-17T04:14:08.979Z,95935.00
2018-09-17T04:16:39.179Z,95934.00
2018-09-17T04:19:11.395Z,95937.00
2018-09-17T04:21:41.269Z,95942.00
2018-09-17T04:24:12.326Z,95940.00
2018-09-17T04:26:41.879Z,95933.00
2018-09-17T04:29:11.624Z,95924.00
2018-09-17T04:31:41.392Z,95934.00
2018-09-17T04:34:14.036Z,95933.00
2018-09-17T04:36:43.645Z,95935.00
2018-09-17T04:39:14.948Z,95945.00
2018-09-17T04:41:45.282Z,95951.00
2018-09-17T04:44:15.583Z,95951.00
2018-09-17T04:46:50.004Z,95960.00
2018-09-17T04:49:20.346Z,95953.00
2018-09-17T04:51:50.553Z,95955.00
2018-09-17T04:54:22.267Z,95962.00
2018-09-17T04:56:52.078Z,95953.00
2018-09-17T04:59:21.876Z,95965.00
2018-09-17T05:01:51.610Z,95956.00
2018-09-17T05:04:21.247Z,95963.00
2018-09-17T05:06:51.060Z,95954.00
2018-09-17T05:09:22.697Z,95953.00
2018-09-17T05:11:52.672Z,95958.00
2018-09-17T05:14:22.339Z,95956.00
2018-09-17T05:16:51.840Z,95962.00
2018-09-17T05:19:21.590Z,95966.00
2018-09-17T05:21:52.225Z,95975.00
2018-09-17T05:24:22.197Z,95975.00
2018-09-17T05:26:51.800Z,95979.00
2018-09-17T05:29:21.518Z,95983.00
2018-09-17T05:31:51.325Z,95982.00
2018-09-17T05:34:21.483Z,95989.00
2018-09-17T05:36:51.516Z,95992.00
2018-09-17T05:39:21.077Z,95999.00
2018-09-17T05:41:50.651Z,95995.00
2018-09-17T05:44:22.186Z,95988.00
2018-09-17T05:46:51.792Z,95996.00
2018-09-17T05:49:21.482Z,96000.00
2018-09-17T05:51:51.202Z,95992.00
2018-09-17T05:54:21.559Z,96000.00
2018-09-17T05:56:52.184Z,96003.00
2018-09-17T05:59:22.378Z,95997.00
2018-09-17T06:01:52.773Z,96004.00
2018-09-17T06:04:22.666Z,96001.00
2018-09-17T06:06:53.356Z,96004.00
2018-09-17T06:09:23.807Z,96004.00
2018-09-17T06:11:53.447Z,96005.00
2018-09-17T06:14:23.387Z,96004.00
2018-09-17T06:16:53.698Z,96007.00
2018-09-17T06:19:23.580Z,96006.00
2018-09-17T06:21:53.293Z,96000.00
2018-09-17T06:24:24.854Z,96009.00
2018-09-17T06:26:54.403Z,96002.00
2018-09-17T06:29:24.132Z,96009.00
2018-09-17T06:31:54.708Z,96010.00
2018-09-17T06:34:24.557Z,96014.00
2018-09-17T06:39:24.592Z,96011.00
2018-09-17T06:41:54.937Z,96017.00
2018-09-17T06:44:24.667Z,96003.00
2018-09-17T06:46:59.057Z,96013.00
2018-09-17T06:49:28.679Z,96017.00
2018-09-17T06:51:59.095Z,96005.00
2018-09-17T06:54:29.345Z,96004.00
2018-09-17T06:56:58.956Z,96016.00
2018-09-17T06:59:29.803Z,96019.00
2018-09-17T07:02:00.748Z,96007.00
2018-09-17T07:04:30.439Z,96020.00
2018-09-17T07:07:01.403Z,96015.00
2018-09-17T07:09:35.543Z,96012.00
2018-09-17T07:12:05.328Z,96006.00
2018-09-17T07:14:35.238Z,96008.00
2018-09-17T07:17:05.068Z,96005.00
2018-09-17T07:19:34.786Z,96011.00
2018-09-17T07:22:04.378Z,96013.00
2018-09-17T07:24:34.590Z,96012.00
2018-09-17T07:27:04.801Z,96007.00
2018-09-17T07:29:35.485Z,96002.00
2018-09-17T07:32:04.972Z,96005.00
2018-09-17T07:34:34.980Z,96008.00
2018-09-17T07:37:04.694Z,96005.00
2018-09-17T07:39:34.255Z,96001.00
2018-09-17T07:42:04.289Z,96006.00
2018-09-17T07:44:33.892Z,96002.00
2018-09-17T07:47:04.103Z,95998.00
2018-09-17T07:49:33.615Z,95990.00
2018-09-17T07:52:03.167Z,95996.00
2018-09-17T07:54:32.799Z,95989.00
2018-09-17T07:57:02.342Z,95981.00
2018-09-17T07:59:33.549Z,95987.00
2018-09-17T08:02:03.033Z,95982.00
2018-09-17T08:04:32.668Z,95966.00
2018-09-17T08:07:02.255Z,95967.00
2018-09-17T08:09:32.219Z,95963.00
2018-09-17T08:12:01.767Z,95964.00
2018-09-17T08:14:31.397Z,95962.00
2018-09-17T08:17:01.597Z,95974.00
2018-09-17T08:19:32.238Z,95974.00
2018-09-17T08:22:01.912Z,95962.00
2018-09-17T08:24:31.778Z,95961.00
2018-09-17T08:27:01.393Z,95965.00
2018-09-17T08:29:31.098Z,95977.00
2018-09-17T08:32:01.664Z,95982.00
2018-09-17T08:34:31.129Z,95978.00
2018-09-17T08:37:01.728Z,95982.00
2018-09-17T08:39:31.168Z,95973.00
2018-09-17T08:42:01.468Z,95973.00
2018-09-17T08:44:31.247Z,95975.00
2018-09-17T08:47:01.640Z,95976.00
2018-09-17T08:49:31.557Z,95977.00
2018-09-17T08:52:01.072Z,95974.00
2018-09-17T08:54:30.932Z,95972.00
2018-09-17T08:57:00.508Z,95963.00
2018-09-17T08:59:35.805Z,95955.00
2018-09-17T09:02:10.592Z,95961.00
2018-09-17T09:04:50.736Z,95963.00
2018-09-17T09:07:26.060Z,95960.00
2018-09-17T09:10:01.378Z,95966.00
2018-09-17T09:12:36.564Z,95962.00
2018-09-17T09:15:11.399Z,95961.00
2018-09-17T09:17:41.262Z,95949.00
2018-09-17T09:20:11.091Z,95951.00
2018-09-17T09:22:40.555Z,95945.00
2018-09-17T09:25:10.247Z,95948.00
2018-09-17T09:27:40.697Z,95947.00
2018-09-17T09:30:11.027Z,95949.00
2018-09-17T09:32:40.796Z,95949.00
2018-09-17T09:35:10.991Z,95950.00
2018-09-17T09:37:41.441Z,95948.00
2018-09-17T09:40:11.090Z,95943.00
2018-09-17T09:42:40.934Z,95937.00
2018-09-17T09:45:10.793Z,95952.00
2018-09-17T09:47:40.968Z,95936.00
2018-09-17T09:50:14.448Z,95941.00
2018-09-17T09:52:51.080Z,95930.00
2018-09-17T09:55:20.883Z,95931.00
2018-09-17T09:57:50.631Z,95935.00
2018-09-17T10:00:25.485Z,95928.00
2018-09-17T10:03:05.917Z,95940.00
2018-09-17T10:05:36.067Z,95931.00
2018-09-17T10:08:05.823Z,95932.00
2018-09-17T10:10:40.490Z,95919.00
2018-09-17T10:13:15.125Z,95917.00
2018-09-17T10:15:50.844Z,95921.00
2018-09-17T10:18:25.970Z,95917.00
2018-09-17T10:20:56.161Z,95911.00
2018-09-17T10:23:25.714Z,95913.00
2018-09-17T10:25:55.612Z,95900.00
2018-09-17T10:28:25.389Z,95907.00
2018-09-17T10:30:55.052Z,95901.00
2018-09-17T10:33:25.592Z,95906.00
2018-09-17T10:35:55.678Z,95899.00
2018-09-17T10:38:26.202Z,95891.00
2018-09-17T10:40:56.816Z,95895.00
2018-09-17T10:43:26.547Z,95890.00
2018-09-17T10:45:56.622Z,95885.00
2018-09-17T10:48:26.689Z,95885.00
2018-09-17T10:50:57.073Z,95887.00
2018-09-17T10:53:26.650Z,95882.00
2018-09-17T10:55:56.805Z,95882.00
2018-09-17T10:58:26.959Z,95872.00
2018-09-17T11:00:56.463Z,95876.00
2018-09-17T11:03:26.168Z,95877.00
2018-09-17T11:05:55.634Z,95874.00
2018-09-17T11:08:25.635Z,95871.00
2018-09-17T11:10:56.009Z,95869.00
2018-09-17T11:13:26.085Z,95872.00
2018-09-17T11:15:56.459Z,95866.00
2018-09-17T11:18:25.928Z,95861.00
2018-09-17T11:20:55.692Z,95861.00
2018-09-17T11:23:29.104Z,95859.00
2018-09-17T11:26:02.998Z,95854.00
2018-09-17T11:28:32.455Z,95858.00
2018-09-17T11:31:02.141Z,95854.00
2018-09-17T11:33:32.596Z,95841.00
2018-09-17T11:36:02.035Z,95843.00
2018-09-17T11:38:32.798Z,95843.00
2018-09-17T11:41:02.270Z,95840.00
2018-09-17T11:43:31.744Z,95839.00
2018-09-17T11:46:01.438Z,95838.00
2018-09-17T11:48:30.968Z,95843.00
2018-09-17T11:51:00.904Z,95831.00
2018-09-17T11:53:31.468Z,95842.00
2018-09-17T11:56:01.371Z,95834.00
2018-09-17T11:58:30.922Z,95830.00
2018-09-17T12:01:05.692Z,95830.00
2018-09-17T12:03:40.893Z,95831.00
2018-09-17T12:06:11.051Z,95823.00
2018-09-17T12:08:40.857Z,95833.00
2018-09-17T12:11:11.149Z,95830.00
2018-09-17T12:13:41.295Z,95835.00
2018-09-17T12:16:11.691Z,95818.00
2018-09-17T12:18:41.879Z,95828.00
2018-09-17T12:21:11.525Z,95828.00
2018-09-17T12:23:41.320Z,95821.00
2018-09-17T12:26:10.830Z,95815.00
2018-09-17T12:28:40.977Z,95816.00
2018-09-17T12:31:11.870Z,95824.00
2018-09-17T12:33:42.362Z,95827.00
2018-09-17T12:36:12.118Z,95821.00
2018-09-17T12:38:41.605Z,95826.00
2018-09-17T12:41:12.094Z,95828.00
2018-09-17T12:43:42.006Z,95832.00
2018-09-17T12:46:14.819Z,95825.00
2018-09-17T12:48:44.597Z,95819.00
2018-09-17T12:51:14.200Z,95815.00
2018-09-17T12:53:43.740Z,95825.00
2018-09-17T12:56:13.976Z,95816.00
2018-09-17T12:58:43.527Z,95816.00
2018-09-17T13:01:13.717Z,95810.00
2018-09-17T13:03:43.885Z,95811.00
2018-09-17T13:06:13.684Z,95805.00
2018-09-17T13:08:43.806Z,95803.00
2018-09-17T13:11:14.135Z,95806.00
2018-09-17T13:13:44.465Z,95797.00
2018-09-17T13:16:14.021Z,95791.00
2018-09-17T13:18:43.731Z,95794.00
2018-09-17T13:21:14.139Z,95793.00
2018-09-17T13:23:44.836Z,95796.00
2018-09-17T13:26:14.507Z,95793.00
2018-09-17T13:28:44.330Z,95793.00
2018-09-17T13:31:13.961Z,95791.00
2018-09-17T13:33:44.559Z,95786.00
2018-09-17T13:36:15.723Z,95781.00
2018-09-17T13:38:46.303Z,95784.00
2018-09-17T13:41:17.407Z,95792.00
2018-09-17T13:43:47.304Z,95788.00
2018-09-17T13:46:16.886Z,95784.00
2018-09-17T13:48:47.568Z,95787.00
2018-09-17T13:51:18.632Z,95782.00
2018-09-17T13:53:48.603Z,95772.00
2018-09-17T13:56:18.217Z,95775.00
2018-09-17T13:58:47.884Z,95777.00
2018-09-17T14:01:17.565Z,95778.00
2018-09-17T14:03:47.354Z,95767.00
2018-09-17T14:06:16.902Z,95772.00
2018-09-17T14:08:46.674Z,95768.00
2018-09-17T14:11:16.190Z,95771.00
2018-09-17T14:13:46.019Z,95766.00
2018-09-17T14:16:19.778Z,95766.00
2018-09-17T14:18:50.228Z,95769.00
2018-09-17T14:21:20.447Z,95764.00
2018-09-17T14:23:55.598Z,95761.00
2018-09-17T14:26:26.796Z,95764.00
2018-09-17T14:28:57.627Z,95759.00
2018-09-17T14:31:33.350Z,95762.00
2018-09-17T14:34:02.855Z,95769.00
2018-09-17T14:36:32.548Z,95767.00
2018-09-17T14:39:02.044Z,95756.00
2018-09-17T14:41:32.266Z,95760.00
2018-09-17T14:44:01.991Z,95750.00
2018-09-17T14:46:33.247Z,95754.00
2018-09-17T14:49:03.371Z,95747.00
2018-09-17T14:51:33.440Z,95744.00
2018-09-17T14:54:03.208Z,95741.00
2018-09-17T14:56:34.932Z,95741.00
2018-09-17T14:59:05.273Z,95733.00
2018-09-17T15:01:35.048Z,95729.00
2018-09-17T15:04:04.759Z,95723.00
2018-09-17T15:06:34.489Z,95723.00
2018-09-17T15:09:05.060Z,95726.00
2018-09-17T15:11:35.612Z,95727.00
2018-09-17T15:14:06.643Z,95723.00
2018-09-17T15:16:37.740Z,95722.00
2018-09-17T15:19:08.094Z,95722.00
2018-09-17T15:21:41.221Z,95719.00
2018-09-17T15:24:12.016Z,95717.00
2018-09-17T15:26:42.906Z,95719.00
2018-09-17T15:29:12.649Z,95720.00
2018-09-17T15:31:42.993Z,95720.00
2018-09-17T15:34:12.788Z,95716.00
2018-09-17T15:36:43.336Z,95720.00
2018-09-17T15:39:14.216Z,95719.00
2018-09-17T15:41:44.424Z,95714.00
2018-09-17T15:44:15.056Z,95701.00
2018-09-17T15:46:44.891Z,95704.00
2018-09-17T15:49:14.539Z,95697.00
2018-09-17T15:51:44.093Z,95709.00
2018-09-17T15:54:14.457Z,95702.00
2018-09-17T15:56:43.963Z,95702.00
2018-09-17T15:59:13.592Z,95698.00
2018-09-17T16:01:43.909Z,95696.00
2018-09-17T16:04:14.338Z,95699.00
2018-09-17T16:06:44.805Z,95690.00
2018-09-17T16:09:14.393Z,95690.00
2018-09-17T16:11:44.947Z,95698.00
2018-09-17T16:14:15.337Z,95699.00
2018-09-17T16:16:44.852Z,95700.00
2018-09-17T16:19:15.683Z,95696.00
2018-09-17T16:21:49.591Z,95695.00
2018-09-17T16:24:19.826Z,95707.00
2018-09-17T16:26:49.479Z,95698.00
2018-09-17T16:29:19.169Z,95700.00
2018-09-17T16:31:50.588Z,95695.00
2018-09-17T16:34:20.932Z,95698.00
2018-09-17T16:36:55.600Z,95688.00
2018-09-17T16:39:26.445Z,95688.00
2018-09-17T16:41:56.090Z,95696.00
2018-09-17T16:44:26.485Z,95695.00
2018-09-17T16:46:56.380Z,95688.00
2018-09-17T16:49:26.736Z,95703.00
2018-09-17T16:51:58.913Z,95700.00
2018-09-17T16:54:28.691Z,95695.00
2018-09-17T16:56:58.527Z,95695.00
2018-09-17T16:59:29.173Z,95706.00
2018-09-17T17:01:59.748Z,95697.00
2018-09-17T17:04:29.551Z,95702.00
2018-09-17T17:06:59.485Z,95685.00
2018-09-17T17:09:29.174Z,95690.00
2018-09-17T17:12:00.039Z,95692.00
2018-09-17T17:14:30.703Z,95695.00
2018-09-17T17:17:00.345Z,95687.00
2018-09-17T17:19:30.759Z,95692.00
2018-09-17T17:22:00.256Z,95684.00
2018-09-17T17:24:30.474Z,95693.00
2018-09-17T17:27:00.297Z,95696.00
2018-09-17T17:29:30.036Z,95696.00
2018-09-17T17:31:59.704Z,95693.00
2018-09-17T17:34:29.382Z,95696.00
2018-09-17T17:37:07.782Z,95697.00
2018-09-17T17:39:38.484Z,95690.00
2018-09-17T17:42:08.192Z,95699.00
2018-09-17T17:44:38.518Z,95702.00
2018-09-17T17:47:08.910Z,95693.00
2018-09-17T17:49:38.628Z,95695.00
2018-09-17T17:52:08.261Z,95688.00
2018-09-17T17:54:39.481Z,95702.00
2018-09-17T17:57:09.059Z,95693.00
2018-09-17T17:59:38.804Z,95700.00
2018-09-17T18:02:09.340Z,95698.00
2018-09-17T18:05:00.979Z,95704.00
2018-09-17T18:07:32.901Z,95707.00
2018-09-17T18:10:12.452Z,95705.00
2018-09-17T18:12:51.437Z,95709.00
2018-09-17T18:15:21.318Z,95710.00
2018-09-17T18:17:54.841Z,95706.00
2018-09-17T18:20:25.280Z,95710.00
2018-09-17T18:22:55.590Z,95709.00
2018-09-17T18:25:26.725Z,95705.00
2018-09-17T18:27:56.443Z,95710.00
2018-09-17T18:30:26.134Z,95714.00
2018-09-17T18:32:57.089Z,95721.00
2018-09-17T18:35:27.745Z,95718.00
2018-09-17T18:38:02.776Z,95718.00
2018-09-17T18:40:33.397Z,95723.00
2018-09-17T18:43:04.708Z,95711.00
2018-09-17T18:45:34.285Z,95719.00
2018-09-17T18:48:08.370Z,95714.00
2018-09-17T18:50:37.941Z,95722.00
2018-09-17T18:53:07.765Z,95718.00
2018-09-17T18:55:37.293Z,95709.00
2018-09-17T18:58:08.118Z,95715.00
2018-09-17T19:00:38.380Z,95719.00
2018-09-17T19:03:15.131Z,95728.00
2018-09-17T19:05:44.973Z,95727.00
2018-09-17T19:08:15.908Z,95726.00
2018-09-17T19:10:45.963Z,95716.00
2018-09-17T19:13:16.146Z,95720.00
2018-09-17T19:15:52.139Z,95711.00
2018-09-17T19:18:21.979Z,95711.00
2018-09-17T19:20:53.208Z,95708.00
2018-09-17T19:23:28.653Z,95704.00
2018-09-17T19:25:58.389Z,95711.00
2018-09-17T19:28:33.926Z,95708.00
2018-09-17T19:31:03.866Z,95694.00
2018-09-17T19:33:33.720Z,95696.00
2018-09-17T19:36:06.796Z,95689.00
2018-09-17T19:39:43.423Z,95698.00
2018-09-17T19:42:14.579Z,95692.00
2018-09-17T19:44:49.901Z,95695.00
2018-09-17T19:47:24.775Z,95701.00
2018-09-17T19:49:55.342Z,95706.00
2018-09-17T19:52:25.589Z,95698.00
2018-09-17T19:54:55.303Z,95702.00
2018-09-17T19:57:30.207Z,95697.00
2018-09-17T20:00:00.380Z,95705.00
2018-09-17T20:02:30.381Z,95705.00
2018-09-17T20:05:05.554Z,95715.00
2018-09-17T20:07:35.095Z,95717.00
2018-09-17T20:10:04.923Z,95708.00
2018-09-17T20:12:34.413Z,95697.00
2018-09-17T20:15:03.843Z,95700.00
2018-09-17T20:17:33.565Z,95707.00
2018-09-17T20:20:03.929Z,95701.00
2018-09-17T20:22:33.695Z,95704.00
2018-09-17T20:25:03.682Z,95702.00
2018-09-17T20:27:33.241Z,95707.00
2018-09-17T20:30:03.565Z,95705.00
2018-09-17T20:32:34.915Z,95699.00
2018-09-17T20:35:04.998Z,95686.00
2018-09-17T20:37:35.276Z,95693.00
2018-09-17T20:40:04.975Z,95696.00
2018-09-17T20:42:35.870Z,95695.00
2018-09-17T20:45:05.531Z,95689.00
2018-09-17T20:47:36.073Z,95692.00
2018-09-17T20:50:06.009Z,95688.00
2018-09-17T20:52:36.860Z,95683.00
2018-09-17T20:55:06.440Z,95689.00
2018-09-17T20:57:36.695Z,95679.00
2018-09-17T21:00:06.436Z,95683.00
2018-09-17T21:02:37.129Z,95680.00
2018-09-17T21:05:06.962Z,95680.00
2018-09-17T21:07:37.011Z,95673.00
2018-09-17T21:10:06.782Z,95679.00
2018-09-17T21:12:37.818Z,95669.00
2018-09-17T21:15:07.459Z,95664.00
2018-09-17T21:17:37.379Z,95672.00
2018-09-17T21:20:07.435Z,95675.00
2018-09-17T21:22:37.147Z,95670.00
2018-09-17T21:25:06.965Z,95658.00
2018-09-17T21:27:36.605Z,95662.00
2018-09-17T21:30:06.855Z,95671.00
2018-09-17T21:32:36.303Z,95661.00
2018-09-17T21:35:06.200Z,95662.00
2018-09-17T21:37:35.944Z,95660.00
2018-09-17T21:40:05.728Z,95654.00
2018-09-17T21:42:35.265Z,95653.00
2018-09-17T21:45:06.229Z,95645.00
2018-09-17T21:47:35.943Z,95656.00
2018-09-17T21:50:06.345Z,95641.00
2018-09-17T21:52:37.187Z,95651.00
2018-09-17T21:55:06.755Z,95651.00
2018-09-17T21:57:36.933Z,95662.00
2018-09-17T22:00:07.312Z,95652.00
2018-09-17T22:02:37.224Z,95651.00
2018-09-17T22:05:07.162Z,95647.00
2018-09-17T22:07:37.392Z,95638.00
2018-09-17T22:10:07.168Z,95642.00
2018-09-17T22:12:36.916Z,95637.00
2018-09-17T22:15:06.572Z,95633.00
2018-09-17T22:17:36.225Z,95627.00
2018-09-17T22:20:05.944Z,95633.00
2018-09-17T22:22:36.518Z,95636.00
2018-09-17T22:25:06.052Z,95631.00
2018-09-17T22:27:35.427Z,95625.00
2018-09-17T22:30:05.237Z,95631.00
2018-09-17T22:32:34.772Z,95628.00
2018-09-17T22:35:05.002Z,95621.00
2018-09-17T22:37:34.515Z,95624.00
2018-09-17T22:40:04.277Z,95622.00
2018-09-17T22:42:34.449Z,95621.00
2018-09-17T22:45:03.945Z,95620.00
2018-09-17T22:47:33.705Z,95615.00
2018-09-17T22:50:04.624Z,95614.00
2018-09-17T22:52:34.129Z,95613.00
2018-09-17T22:55:04.337Z,95608.00
2018-09-17T22:57:33.844Z,95607.00
2018-09-17T23:00:03.425Z,95610.00
2018-09-17T23:02:33.051Z,95610.00
2018-09-17T23:05:02.619Z,95613.00
2018-09-17T23:07:32.007Z,95603.00
2018-09-17T23:10:01.586Z,95611.00
2018-09-17T23:12:31.455Z,95607.00
2018-09-17T23:15:01.949Z,95614.00
2018-09-17T23:17:31.637Z,95612.00
2018-09-17T23:20:01.259Z,95606.00
2018-09-17T23:22:30.834Z,95606.00
2018-09-17T23:25:00.418Z,95606.00
2018-09-17T23:27:30.160Z,95607.00
2018-09-17T23:29:59.945Z,95598.00
2018-09-17T23:32:29.512Z,95597.00
2018-09-17T23:34:58.994Z,95598.00
2018-09-17T23:37:28.548Z,95602.00
2018-09-17T23:39:58.230Z,95603.00
2018-09-17T23:42:28.502Z,95609.00
2018-09-17T23:44:59.739Z,95614.00
2018-09-17T23:47:29.336Z,95612.00
2018-09-17T23:49:59.414Z,95603.00
2018-09-17T23:52:29.138Z,95610.00
2018-09-17T23:54:58.604Z,95601.00
2018-09-17T23:57:33.378Z,95596.00
